Time;durP1;ratioP1;P1;durP2;ratioP2;P2;SDS_P1;SDS_P2;PMS_P1;PMS_P2;Temp;Humidity;BMP_temperature;BMP_pressure;BME280_temperature;BME280_humidity;BME280_pressure;Samples;Min_cycle;Max_cycle;Signal;HPM_P1;HPM_P2
2023/02/11 00:01:27;;;;;;;30.20;18.20;;;;;;;-1.22;100.00;100914.25;109814;1274;22204;-64
2023/02/11 00:03:55;;;;;;;30.70;18.60;;;;;;;-1.19;100.00;100914.91;109833;1278;22352;-64
2023/02/11 00:06:24;;;;;;;31.00;17.50;;;;;;;-1.22;100.00;100910.31;109835;1274;22939;-65
2023/02/11 00:08:56;;;;;;;30.60;19.90;;;;;;;-1.26;100.00;100911.30;109843;1281;23050;-64
2023/02/11 00:11:29;;;;;;;31.10;18.60;;;;;;;-1.30;100.00;100907.60;109820;1274;22217;-65
2023/02/11 00:13:58;;;;;;;32.80;18.90;;;;;;;-1.33;100.00;100905.06;109811;1273;22533;-64
2023/02/11 00:16:27;;;;;;;31.60;19.20;;;;;;;-1.30;100.00;100904.44;109795;1281;23048;-65
2023/02/11 00:18:55;;;;;;;29.00;17.60;;;;;;;-1.26;100.00;100905.04;109784;1273;22235;-65
2023/02/11 00:21:24;;;;;;;31.60;18.70;;;;;;;-1.23;100.00;100911.09;109851;1274;22384;-64
2023/02/11 00:23:53;;;;;;;27.60;17.30;;;;;;;-1.23;100.00;100911.35;109829;1274;22353;-64
2023/02/11 00:26:26;;;;;;;32.50;18.50;;;;;;;-1.27;100.00;100913.75;109835;1275;22296;-65
2023/02/11 00:28:55;;;;;;;31.00;18.70;;;;;;;-1.29;100.00;100915.75;109827;1258;23093;-65
2023/02/11 00:31:24;;;;;;;35.30;19.50;;;;;;;-1.31;100.00;100914.12;109795;1273;22603;-64
2023/02/11 00:33:52;;;;;;;31.70;19.10;;;;;;;-1.26;100.00;100912.52;109861;1274;22426;-65
2023/02/11 00:36:23;;;;;;;29.20;18.30;;;;;;;-1.18;100.00;100912.75;109825;1278;22847;-64
2023/02/11 00:38:52;;;;;;;30.60;18.90;;;;;;;-1.15;100.00;100909.91;108137;1273;22536;-64
2023/02/11 00:41:21;;;;;;;27.10;17.00;;;;;;;-1.17;100.00;100907.90;107344;1274;22523;-64
2023/02/11 00:43:49;;;;;;;30.70;18.70;;;;;;;-1.19;100.00;100910.64;106184;1274;26806;-64
2023/02/11 00:46:20;;;;;;;29.60;18.80;;;;;;;-1.21;100.00;100909.84;106137;1273;25321;-64
2023/02/11 00:48:50;;;;;;;29.80;18.50;;;;;;;-1.17;100.00;100913.12;106363;1274;22927;-63
2023/02/11 00:51:25;;;;;;;31.60;18.80;;;;;;;-1.12;100.00;100910.30;106173;1274;24969;-64
2023/02/11 00:53:54;;;;;;;32.00;18.00;;;;;;;-1.10;100.00;100903.36;106195;1275;25288;-64
2023/02/11 00:56:25;;;;;;;31.00;19.30;;;;;;;-1.12;100.00;100902.98;106189;1274;25518;-64
2023/02/11 00:58:54;;;;;;;33.70;19.70;;;;;;;-1.16;100.00;100901.11;106311;1275;23614;-63
2023/02/11 01:01:22;;;;;;;34.60;21.20;;;;;;;-1.20;100.00;100901.36;106280;1275;22525;-64
2023/02/11 01:03:51;;;;;;;35.30;20.10;;;;;;;-1.23;100.00;100900.55;106752;1273;25406;-64
2023/02/11 01:06:19;;;;;;;35.40;21.40;;;;;;;-1.19;100.00;100900.85;107590;1274;25451;-64
2023/02/11 01:08:47;;;;;;;35.90;20.70;;;;;;;-1.13;100.00;100898.29;106318;1273;26166;-64
2023/02/11 01:11:19;;;;;;;31.90;19.70;;;;;;;-1.09;100.00;100901.19;106540;1274;25332;-64
2023/02/11 01:13:48;;;;;;;36.70;20.50;;;;;;;-1.13;100.00;100902.83;107617;1273;25380;-64
2023/02/11 01:16:16;;;;;;;34.10;21.50;;;;;;;-1.15;100.00;100903.49;109868;1275;22880;-65
2023/02/11 01:18:46;;;;;;;36.20;21.30;;;;;;;-1.16;100.00;100903.92;109891;1279;22388;-65
2023/02/11 01:21:17;;;;;;;36.20;21.00;;;;;;;-1.15;100.00;100907.23;109917;1280;22391;-65
2023/02/11 01:23:46;;;;;;;37.00;21.40;;;;;;;-1.09;100.00;100907.92;109882;1279;22291;-66
2023/02/11 01:26:14;;;;;;;33.70;19.90;;;;;;;-1.01;100.00;100908.69;109877;1274;22436;-65
2023/02/11 01:28:42;;;;;;;36.10;19.10;;;;;;;-0.94;100.00;100913.10;109903;1280;23292;-65
2023/02/11 01:31:10;;;;;;;31.20;19.50;;;;;;;-0.94;100.00;100910.02;109823;1274;22489;-65
2023/02/11 01:33:38;;;;;;;35.10;20.90;;;;;;;-0.94;100.00;100915.23;109936;1279;22934;-65
2023/02/11 01:36:07;;;;;;;31.80;19.90;;;;;;;-0.95;100.00;100909.79;109828;1275;23217;-65
2023/02/11 01:38:36;;;;;;;35.50;21.50;;;;;;;-0.93;100.00;100908.32;109900;1279;22350;-65
2023/02/11 01:41:07;;;;;;;35.90;20.60;;;;;;;-0.87;100.00;100912.31;109108;1271;23401;-65
2023/02/11 01:43:38;;;;;;;38.50;20.40;;;;;;;-0.81;100.00;100913.02;107407;1271;23504;-64
2023/02/11 01:46:30;;;;;;;31.60;19.00;;;;;;;-0.77;100.00;100911.73;107768;1275;22557;-64
2023/02/11 01:49:20;;;;;;;35.80;20.10;;;;;;;-0.81;100.00;100900.95;107469;1272;24756;-64
2023/02/11 01:51:57;;;;;;;34.70;21.40;;;;;;;-0.86;100.00;100896.45;107722;1269;23253;-64
2023/02/11 01:57:23;;;;;;;38.60;21.60;;;;;;;-0.88;100.00;100896.05;107667;1272;22793;-64
2023/02/11 02:00:16;;;;;;;34.30;19.70;;;;;;;-0.83;100.00;100896.20;107672;1269;25339;-64
2023/02/11 02:02:59;;;;;;;34.50;19.60;;;;;;;-0.77;100.00;100894.25;107444;1272;23009;-64
2023/02/11 02:05:39;;;;;;;37.70;20.90;;;;;;;-0.77;100.00;100891.38;107384;1271;23381;-64
2023/02/11 02:08:18;;;;;;;35.30;21.30;;;;;;;-0.82;100.00;100888.79;107411;1271;22541;-64
2023/02/11 02:10:48;;;;;;;39.90;21.90;;;;;;;-0.92;100.00;100881.82;107387;1275;22519;-65
2023/02/11 02:13:17;;;;;;;37.00;21.40;;;;;;;-0.91;100.00;100881.41;107943;1271;25491;-64
2023/02/11 02:15:56;;;;;;;38.90;23.00;;;;;;;-0.85;100.00;100876.40;107417;1273;22538;-64
2023/02/11 02:18:50;;;;;;;38.20;22.30;;;;;;;-0.81;100.00;100878.25;107533;1274;24038;-64
2023/02/11 02:21:30;;;;;;;41.60;21.60;;;;;;;-0.88;100.00;100875.50;107420;1271;25316;-64
2023/02/11 02:24:30;;;;;;;40.50;22.60;;;;;;;-1.01;100.00;100871.64;107465;1269;23402;-65
2023/02/11 02:27:07;;;;;;;36.10;21.40;;;;;;;-1.12;100.00;100870.52;107375;1269;22568;-64
2023/02/11 02:30:06;;;;;;;41.40;22.60;;;;;;;-1.17;100.00;100872.01;107338;1269;22595;-64
2023/02/11 02:32:53;;;;;;;38.80;21.10;;;;;;;-1.11;100.00;100873.29;107365;1272;22542;-64
2023/02/11 02:35:28;;;;;;;35.60;21.20;;;;;;;-1.06;100.00;100869.85;107394;1272;22707;-64
2023/02/11 02:38:05;;;;;;;38.30;20.20;;;;;;;-1.08;100.00;100870.59;110236;1275;22264;-65
2023/02/11 02:40:49;;;;;;;36.20;20.90;;;;;;;-1.13;100.00;100869.19;110098;1275;22415;-65
2023/02/11 02:43:17;;;;;;;37.20;20.20;;;;;;;-1.20;100.00;100874.44;110257;1275;22234;-65
2023/02/11 02:45:46;;;;;;;36.30;21.30;;;;;;;-1.26;100.00;100868.50;110046;1274;22344;-65
2023/02/11 02:48:30;;;;;;;42.40;21.70;;;;;;;-1.21;100.00;100866.05;110247;1275;22345;-65
2023/02/11 02:51:10;;;;;;;39.90;20.00;;;;;;;-1.15;100.00;100867.12;110240;1275;22388;-65
2023/02/11 02:53:43;;;;;;;39.20;21.50;;;;;;;-1.18;100.00;100870.63;110247;1270;22375;-65
2023/02/11 02:56:21;;;;;;;38.60;22.60;;;;;;;-1.23;100.00;100870.10;110190;1269;23429;-66
2023/02/11 02:59:17;;;;;;;39.60;22.80;;;;;;;-1.23;100.00;100871.04;110070;1275;22416;-66
2023/02/11 03:02:11;;;;;;;43.50;21.60;;;;;;;-1.22;100.00;100876.42;110025;1275;23058;-65
2023/02/11 03:04:42;;;;;;;37.00;20.80;;;;;;;-1.20;100.00;100876.64;109533;1269;22915;-65
2023/02/11 03:07:13;;;;;;;36.00;21.00;;;;;;;-1.18;100.00;100875.47;107355;1264;22735;-64
2023/02/11 03:09:46;;;;;;;40.90;22.60;;;;;;;-1.19;100.00;100868.62;107512;1272;22588;-64
2023/02/11 03:12:14;;;;;;;40.30;22.20;;;;;;;-1.18;100.00;100863.36;107469;1275;22602;-65
2023/02/11 03:14:42;;;;;;;41.10;22.10;;;;;;;-1.20;100.00;100858.23;107310;1269;25517;-65
2023/02/11 03:17:11;;;;;;;41.90;22.80;;;;;;;-1.21;100.00;100853.36;107423;1275;22553;-64
2023/02/11 03:19:41;;;;;;;36.90;21.00;;;;;;;-1.16;100.00;100853.39;107391;1275;22523;-64
2023/02/11 03:22:12;;;;;;;41.00;22.50;;;;;;;-1.14;100.00;100850.92;110046;1270;22351;-65
2023/02/11 03:24:40;;;;;;;38.20;22.60;;;;;;;-1.13;100.00;100850.35;110267;1271;22423;-65
2023/02/11 03:27:50;;;;;;;41.70;22.20;;;;;;;-1.12;100.00;100849.34;109976;1275;23239;-65
2023/02/11 03:30:25;;;;;;;38.50;22.00;;;;;;;-1.06;100.00;100849.40;109521;1285;22355;-66
2023/02/11 03:33:00;;;;;;;35.10;20.90;;;;;;;-1.01;100.00;100849.16;109477;1285;22526;-65
2023/02/11 03:35:35;;;;;;;37.20;22.40;;;;;;;-1.02;100.00;100845.38;109777;1275;22463;-65
2023/02/11 03:38:09;;;;;;;39.90;21.60;;;;;;;-1.06;100.00;100843.11;110074;1276;22278;-65
2023/02/11 03:40:38;;;;;;;38.50;22.00;;;;;;;-1.08;100.00;100837.29;109805;1275;22543;-65
2023/02/11 03:43:11;;;;;;;35.70;20.10;;;;;;;-1.01;100.00;100835.77;107615;1271;22551;-65
2023/02/11 03:45:39;;;;;;;40.80;21.70;;;;;;;-0.96;100.00;100833.84;107599;1269;22635;-64
2023/02/11 03:48:15;;;;;;;36.30;21.60;;;;;;;-0.98;100.00;100831.58;107571;1270;26610;-65
2023/02/11 03:50:43;;;;;;;36.70;21.60;;;;;;;-1.02;100.00;100828.02;107464;1275;23386;-64
2023/02/11 03:53:12;;;;;;;41.50;22.70;;;;;;;-1.05;100.00;100824.27;107371;1269;22524;-64
2023/02/11 03:55:40;;;;;;;39.40;21.20;;;;;;;-1.00;100.00;100823.06;107419;1273;23252;-64
2023/02/11 03:58:09;;;;;;;34.00;20.90;;;;;;;-0.96;100.00;100820.66;107305;1272;25357;-64
2023/02/11 04:00:39;;;;;;;38.00;21.90;;;;;;;-1.00;100.00;100816.42;107237;1271;23565;-64
2023/02/11 04:03:08;;;;;;;32.70;20.80;;;;;;;-1.05;100.00;100819.00;107639;1272;24388;-64
2023/02/11 04:05:36;;;;;;;34.10;20.70;;;;;;;-1.10;100.00;100814.66;107687;1275;22560;-65
2023/02/11 04:08:05;;;;;;;37.70;21.30;;;;;;;-1.08;100.00;100810.59;107563;1275;24232;-64
2023/02/11 04:10:34;;;;;;;35.80;20.40;;;;;;;-1.04;100.00;100810.52;107494;1269;25413;-64
2023/02/11 04:13:02;;;;;;;34.60;20.20;;;;;;;-1.02;100.00;100802.99;107517;1274;23475;-64
2023/02/11 04:15:31;;;;;;;33.10;20.30;;;;;;;-1.05;100.00;100801.10;107505;1274;26498;-64
2023/02/11 04:18:02;;;;;;;40.00;21.40;;;;;;;-1.11;100.00;100795.52;107579;1269;23380;-64
2023/02/11 04:20:30;;;;;;;35.40;20.30;;;;;;;-1.14;100.00;100793.27;107540;1270;25329;-65
2023/02/11 04:22:58;;;;;;;35.20;20.60;;;;;;;-1.10;100.00;100791.52;107510;1272;22527;-65
2023/02/11 04:25:28;;;;;;;33.40;20.30;;;;;;;-1.06;100.00;100791.58;107491;1273;23672;-64
2023/02/11 04:27:56;;;;;;;34.10;20.50;;;;;;;-1.07;100.00;100789.41;107565;1275;22709;-65
2023/02/11 04:30:25;;;;;;;35.00;20.20;;;;;;;-1.09;100.00;100783.59;106647;1270;24197;-65
2023/02/11 04:32:53;;;;;;;37.30;20.00;;;;;;;-1.14;100.00;100776.73;110171;1271;23327;-65
2023/02/11 04:35:22;;;;;;;32.90;18.30;;;;;;;-1.14;100.00;100772.75;110285;1274;23183;-65
2023/02/11 04:37:50;;;;;;;32.90;18.90;;;;;;;-1.06;100.00;100770.30;110257;1275;22451;-65
2023/02/11 04:40:18;;;;;;;35.70;19.50;;;;;;;-1.04;100.00;100767.32;110214;1275;22392;-65
2023/02/11 04:42:46;;;;;;;38.10;20.60;;;;;;;-1.06;100.00;100767.83;110284;1271;22348;-65
2023/02/11 04:45:15;;;;;;;35.60;19.80;;;;;;;-1.13;100.00;100768.15;110232;1269;22857;-65
2023/02/11 04:47:43;;;;;;;37.20;20.80;;;;;;;-1.20;100.00;100767.23;109829;1270;22772;-65
2023/02/11 04:50:11;;;;;;;33.70;19.50;;;;;;;-1.24;100.00;100761.67;108136;1276;26154;-64
2023/02/11 04:52:39;;;;;;;33.60;18.90;;;;;;;-1.23;100.00;100754.52;107464;1275;25492;-65
2023/02/11 04:55:08;;;;;;;32.50;19.30;;;;;;;-1.22;100.00;100755.71;107565;1274;25403;-64
2023/02/11 04:57:36;;;;;;;36.10;19.70;;;;;;;-1.28;100.00;100754.80;106556;1269;22540;-65
2023/02/11 05:00:05;;;;;;;34.20;19.10;;;;;;;-1.36;100.00;100756.21;110140;1275;23117;-65
2023/02/11 05:02:34;;;;;;;34.40;19.90;;;;;;;-1.42;100.00;100756.88;110234;1276;22512;-65
2023/02/11 05:05:03;;;;;;;37.00;19.60;;;;;;;-1.38;100.00;100752.18;110201;1275;22290;-65
2023/02/11 05:07:32;;;;;;;34.60;19.10;;;;;;;-1.33;100.00;100755.68;110231;1275;22466;-65
2023/02/11 05:10:00;;;;;;;34.40;20.50;;;;;;;-1.33;100.00;100751.20;109852;1271;208352;-65
2023/02/11 05:13:57;;;;;;;39.40;21.50;;;;;;;-1.33;100.00;100743.20;103589;1305;545035;-64
2023/02/11 05:16:26;;;;;;;31.90;19.90;;;;;;;-1.32;100.00;100754.36;109288;1290;23028;-65
2023/02/11 05:18:54;;;;;;;34.50;19.70;;;;;;;-1.26;100.00;100748.52;109355;1290;22403;-65
2023/02/11 05:21:22;;;;;;;38.30;20.90;;;;;;;-1.26;100.00;100748.34;109360;1290;22217;-65
2023/02/11 05:23:51;;;;;;;35.80;19.60;;;;;;;-1.29;100.00;100744.02;109350;1290;22483;-65
2023/02/11 05:26:19;;;;;;;34.00;20.00;;;;;;;-1.29;100.00;100744.95;109360;1290;22230;-65
2023/02/11 05:28:48;;;;;;;29.80;18.80;;;;;;;-1.23;100.00;100745.17;109365;1288;191725;-65
2023/02/11 05:31:16;;;;;;;30.60;17.70;;;;;;;-1.19;100.00;100738.60;109491;1288;22433;-65
2023/02/11 05:33:44;;;;;;;29.50;17.20;;;;;;;-1.22;100.00;100736.81;109477;1288;22217;-64
2023/02/11 05:36:12;;;;;;;34.50;18.90;;;;;;;-1.25;100.00;100732.35;109521;1288;23037;-65
2023/02/11 05:38:42;;;;;;;34.30;17.80;;;;;;;-1.24;100.00;100735.02;109499;1282;22315;-65
2023/02/11 05:41:10;;;;;;;30.40;17.90;;;;;;;-1.16;100.00;100727.40;109488;1288;23162;-65
2023/02/11 05:43:39;;;;;;;30.20;16.90;;;;;;;-1.09;100.00;100723.75;109465;1288;23121;-65
2023/02/11 05:46:07;;;;;;;31.90;17.30;;;;;;;-1.09;100.00;100727.48;107060;1282;23393;-64
2023/02/11 05:48:36;;;;;;;33.40;19.70;;;;;;;-1.10;100.00;100720.30;106134;1286;26519;-64
2023/02/11 05:51:04;;;;;;;34.50;18.40;;;;;;;-1.08;100.00;100717.72;107323;1283;26519;-63
2023/02/11 05:53:34;;;;;;;34.90;18.60;;;;;;;-0.97;100.00;100716.17;105936;1283;23273;-65
2023/02/11 05:56:04;;;;;;;33.70;18.40;;;;;;;-0.90;100.00;100711.31;105921;1285;25370;-64
2023/02/11 05:58:34;;;;;;;32.40;18.00;;;;;;;-0.91;100.00;100704.22;105854;1288;25342;-64
2023/02/11 06:01:02;;;;;;;31.20;17.10;;;;;;;-0.92;100.00;100705.80;109419;1288;23009;-65
2023/02/11 06:03:31;;;;;;;32.70;17.10;;;;;;;-0.87;100.00;100697.66;109448;1287;22545;-65
2023/02/11 06:05:59;;;;;;;29.80;16.30;;;;;;;-0.76;100.00;100688.44;109491;1281;23986;-65
2023/02/11 06:08:29;;;;;;;30.50;16.50;;;;;;;-0.72;100.00;100676.59;109481;1288;23259;-65
2023/02/11 06:10:57;;;;;;;29.50;16.20;;;;;;;-0.71;100.00;100676.98;109497;1281;22325;-64
2023/02/11 06:13:26;;;;;;;34.60;18.00;;;;;;;-0.71;100.00;100673.41;109471;1288;22350;-65
2023/02/11 06:15:56;;;;;;;32.20;16.40;;;;;;;-0.67;100.00;100672.78;109897;1281;22354;-65
2023/02/11 06:18:25;;;;;;;31.80;17.30;;;;;;;-0.56;100.00;100674.98;109894;1278;22212;-65
2023/02/11 06:20:54;;;;;;;32.40;17.20;;;;;;;-0.48;100.00;100667.34;109791;1275;22864;-65
2023/02/11 06:23:23;;;;;;;34.30;18.40;;;;;;;-0.44;100.00;100657.08;109916;1281;23333;-65
2023/02/11 06:25:52;;;;;;;31.00;16.70;;;;;;;-0.42;100.00;100655.05;109878;1281;22395;-65
2023/02/11 06:28:21;;;;;;;35.40;17.20;;;;;;;-0.40;100.00;100652.09;109917;1281;22234;-65
2023/02/11 06:30:50;;;;;;;31.60;17.30;;;;;;;-0.28;100.00;100647.36;109937;1280;22543;-65
2023/02/11 06:33:18;;;;;;;30.80;16.70;;;;;;;-0.17;100.00;100644.42;109899;1281;22215;-65
2023/02/11 06:35:46;;;;;;;32.20;17.40;;;;;;;-0.14;100.00;100644.36;109877;1281;22298;-65
2023/02/11 06:38:16;;;;;;;34.50;19.20;;;;;;;-0.11;100.00;100644.54;109919;1278;22288;-65
2023/02/11 06:40:48;;;;;;;32.70;17.40;;;;;;;-0.07;100.00;100642.13;109983;1281;22350;-65
2023/02/11 06:43:16;;;;;;;32.30;17.60;;;;;;;-0.01;100.00;100643.34;109984;1281;23299;-65
2023/02/11 06:45:44;;;;;;;29.90;17.90;;;;;;;0.05;100.00;100639.84;107739;1281;23518;-65
2023/02/11 06:48:13;;;;;;;31.80;19.10;;;;;;;0.07;100.00;100634.48;106581;1281;25325;-64
2023/02/11 06:50:41;;;;;;;34.70;17.90;;;;;;;0.08;100.00;100632.83;106404;1281;25360;-64
2023/02/11 06:53:09;;;;;;;30.40;17.90;;;;;;;0.17;100.00;100633.53;106289;1281;25330;-64
2023/02/11 06:55:38;;;;;;;33.90;18.30;;;;;;;0.25;100.00;100632.75;106565;1281;25481;-64
2023/02/11 06:58:07;;;;;;;32.20;18.40;;;;;;;0.25;100.00;100627.09;106830;1281;25373;-65
2023/02/11 07:00:35;;;;;;;34.50;18.90;;;;;;;0.22;100.00;100618.29;106483;1281;25532;-64
2023/02/11 07:03:04;;;;;;;34.40;18.40;;;;;;;0.21;100.00;100623.04;106587;1281;26112;-64
2023/02/11 07:05:33;;;;;;;34.10;18.30;;;;;;;0.22;100.00;100626.18;107381;1273;25519;-65
2023/02/11 07:08:02;;;;;;;33.80;19.00;;;;;;;0.19;100.00;100627.83;106920;1275;24370;-65
2023/02/11 07:10:35;;;;;;;38.70;20.10;;;;;;;0.09;100.00;100623.31;107124;1281;23430;-65
2023/02/11 07:13:06;;;;;;;40.40;20.20;;;;;;;0.04;100.00;100622.99;106999;1281;25444;-65
2023/02/11 07:15:36;;;;;;;34.80;19.90;;;;;;;0.09;100.00;100619.16;107267;1281;22588;-65
2023/02/11 07:18:05;;;;;;;35.40;19.60;;;;;;;0.19;100.00;100620.50;107198;1281;22550;-65
2023/02/11 07:20:36;;;;;;;40.40;20.00;;;;;;;0.19;100.00;100616.70;107137;1281;25363;-64
2023/02/11 07:23:04;;;;;;;40.30;20.80;;;;;;;0.17;100.00;100619.17;107086;1281;22917;-65
2023/02/11 07:25:34;;;;;;;40.50;21.00;;;;;;;0.18;100.00;100620.77;109948;1281;22931;-66
2023/02/11 07:28:04;;;;;;;36.70;20.40;;;;;;;0.24;100.00;100613.05;109966;1281;22701;-66
2023/02/11 07:30:33;;;;;;;38.20;21.10;;;;;;;0.26;100.00;100618.67;110296;1277;22208;-65
2023/02/11 07:33:02;;;;;;;38.50;22.10;;;;;;;0.27;100.00;100613.27;110120;1277;22356;-65
2023/02/11 07:35:30;;;;;;;40.20;21.80;;;;;;;0.26;100.00;100616.77;110274;1277;22279;-65
2023/02/11 07:37:58;;;;;;;35.80;20.90;;;;;;;0.30;100.00;100613.41;110259;1278;22332;-65
2023/02/11 07:40:27;;;;;;;37.50;21.10;;;;;;;0.34;100.00;100608.85;110274;1277;22257;-66
2023/02/11 07:42:56;;;;;;;38.60;21.00;;;;;;;0.36;100.00;100607.89;110265;1277;22284;-66
2023/02/11 07:45:24;;;;;;;37.30;21.50;;;;;;;0.35;100.00;100602.74;110292;1278;22387;-66
2023/02/11 07:47:52;;;;;;;38.20;21.80;;;;;;;0.42;100.00;100592.64;110286;1277;22254;-66
2023/02/11 07:50:21;;;;;;;38.20;21.60;;;;;;;0.47;100.00;100585.98;110295;1277;22201;-66
2023/02/11 07:52:49;;;;;;;41.10;23.10;;;;;;;0.47;100.00;100575.58;110295;1278;23045;-66
2023/02/11 07:55:17;;;;;;;39.40;22.60;;;;;;;0.48;100.00;100567.59;110237;1277;23211;-66
2023/02/11 07:57:46;;;;;;;42.00;22.20;;;;;;;0.52;100.00;100560.35;110118;1277;22465;-65
2023/02/11 08:00:14;;;;;;;41.90;22.60;;;;;;;0.64;100.00;100553.23;110296;1277;22197;-65
2023/02/11 08:02:43;;;;;;;38.60;21.60;;;;;;;0.78;100.00;100552.20;110267;1278;22950;-65
2023/02/11 08:05:11;;;;;;;43.80;23.10;;;;;;;0.84;100.00;100552.70;110269;1278;22277;-64
2023/02/11 08:07:40;;;;;;;41.80;22.80;;;;;;;0.86;100.00;100552.23;110280;1277;22860;-65
2023/02/11 08:10:08;;;;;;;41.70;22.90;;;;;;;0.89;100.00;100552.35;110268;1278;22282;-64
2023/02/11 08:12:37;;;;;;;41.90;22.90;;;;;;;0.99;100.00;100548.95;110247;1277;22231;-65
2023/02/11 08:15:05;;;;;;;40.80;22.50;;;;;;;1.07;100.00;100546.58;110286;1277;22274;-65
2023/02/11 08:17:36;;;;;;;44.20;24.00;;;;;;;1.09;100.00;100536.83;110262;1277;22579;-66
2023/02/11 08:20:04;;;;;;;41.60;23.50;;;;;;;1.13;100.00;100535.02;110153;1276;22904;-65
2023/02/11 08:22:35;;;;;;;41.50;22.50;;;;;;;1.23;100.00;100538.76;110186;1274;23074;-66
2023/02/11 08:25:03;;;;;;;42.20;22.70;;;;;;;1.27;100.00;100538.50;110284;1278;22258;-66
2023/02/11 08:27:33;;;;;;;43.50;24.20;;;;;;;1.25;100.00;100536.45;110264;1278;22178;-65
2023/02/11 08:30:01;;;;;;;39.70;23.80;;;;;;;1.25;100.00;100537.82;110264;1277;22219;-66
2023/02/11 08:32:30;;;;;;;42.80;23.50;;;;;;;1.30;100.00;100532.58;110260;1277;22157;-66
2023/02/11 08:34:58;;;;;;;42.10;22.60;;;;;;;1.38;100.00;100529.23;109358;1277;22543;-64
2023/02/11 08:37:26;;;;;;;39.40;23.40;;;;;;;1.40;100.00;100533.25;106619;1277;26705;-64
2023/02/11 08:39:55;;;;;;;41.90;24.90;;;;;;;1.36;100.00;100526.04;106603;1277;24028;-64
2023/02/11 08:42:23;;;;;;;45.60;24.20;;;;;;;1.30;100.00;100523.74;107650;1277;25357;-65
2023/02/11 08:44:51;;;;;;;38.00;22.70;;;;;;;1.32;100.00;100527.10;109313;1270;25338;-64
2023/02/11 08:47:19;;;;;;;43.30;23.90;;;;;;;1.30;100.00;100520.73;106647;1275;24789;-65
2023/02/11 08:49:48;;;;;;;43.90;24.20;;;;;;;1.25;100.00;100518.58;106658;1272;22531;-66
2023/02/11 08:52:17;;;;;;;47.50;24.10;;;;;;;1.23;100.00;100510.94;106562;1277;22530;-65
2023/02/11 08:54:46;;;;;;;41.80;24.20;;;;;;;1.27;100.00;100509.77;107174;1277;26689;-65
2023/02/11 08:57:14;;;;;;;41.20;24.20;;;;;;;1.33;100.00;100510.20;106970;1277;22533;-65
2023/02/11 08:59:42;;;;;;;42.70;24.60;;;;;;;1.34;100.00;100502.45;107607;1273;26494;-66
2023/02/11 09:02:12;;;;;;;48.90;26.10;;;;;;;1.34;100.00;100501.21;107424;1272;25344;-65
2023/02/11 09:04:41;;;;;;;42.60;25.30;;;;;;;1.35;100.00;100502.80;107411;1277;22557;-65
2023/02/11 09:07:12;;;;;;;43.40;25.50;;;;;;;1.43;100.00;100499.92;107565;1275;23370;-66
2023/02/11 09:09:41;;;;;;;45.80;26.60;;;;;;;1.43;100.00;100501.16;107634;1273;23258;-65
2023/02/11 09:12:09;;;;;;;42.90;25.20;;;;;;;1.41;100.00;100496.37;107517;1275;22630;-65
2023/02/11 09:14:38;;;;;;;42.20;24.70;;;;;;;1.40;100.00;100494.95;107419;1277;25360;-66
2023/02/11 09:17:06;;;;;;;41.70;24.60;;;;;;;1.43;100.00;100480.40;107479;1276;25387;-65
2023/02/11 09:19:35;;;;;;;38.00;25.00;;;;;;;1.46;100.00;100463.91;107506;1271;25337;-66
2023/02/11 09:22:03;;;;;;;41.60;26.20;;;;;;;1.47;100.00;100456.86;107435;1274;22520;-67
2023/02/11 09:24:31;;;;;;;39.60;24.50;;;;;;;1.49;100.00;100459.61;107296;1277;23396;-65
2023/02/11 09:27:00;;;;;;;43.90;25.00;;;;;;;1.59;100.00;100456.40;107316;1276;25210;-65
2023/02/11 09:29:29;;;;;;;38.90;25.00;;;;;;;1.64;100.00;100459.49;107382;1255;25334;-65
2023/02/11 09:31:57;;;;;;;42.70;26.70;;;;;;;1.60;100.00;100456.52;107171;1277;25249;-65
2023/02/11 09:34:25;;;;;;;43.80;25.90;;;;;;;1.54;100.00;100452.61;107223;1277;22807;-67
2023/02/11 09:36:53;;;;;;;42.50;25.10;;;;;;;1.56;100.00;100448.79;107222;1270;25554;-65
2023/02/11 09:39:22;;;;;;;45.60;26.50;;;;;;;1.63;100.00;100442.34;107266;1277;25350;-65
2023/02/11 09:42:05;;;;;;;44.50;27.00;;;;;;;1.61;100.00;100435.38;107284;1270;22589;-66
2023/02/11 09:44:34;;;;;;;40.90;25.50;;;;;;;1.62;100.00;100433.23;107397;1277;26220;-66
2023/02/11 09:47:23;;;;;;;40.60;25.50;;;;;;;1.63;100.00;100426.54;106186;1274;23317;-65
2023/02/11 09:50:05;;;;;;;41.60;26.00;;;;;;;1.65;100.00;100417.05;106803;1270;26628;-65
2023/02/11 09:53:03;;;;;;;43.20;25.50;;;;;;;1.64;100.00;100408.83;106376;1270;25322;-65
2023/02/11 09:55:36;;;;;;;40.70;25.60;;;;;;;1.67;100.00;100408.15;106496;1275;25546;-64
2023/02/11 09:58:32;;;;;;;44.90;26.50;;;;;;;1.71;100.00;100397.20;107278;1272;22535;-65
2023/02/11 10:01:06;;;;;;;42.90;26.40;;;;;;;1.77;100.00;100392.54;106475;1272;22523;-65
2023/02/11 10:03:58;;;;;;;45.60;27.30;;;;;;;1.78;100.00;100394.36;107075;1270;22915;-65
2023/02/11 10:06:49;;;;;;;40.90;26.30;;;;;;;1.79;100.00;100388.43;107763;1273;25478;-65
2023/02/11 10:09:46;;;;;;;42.50;26.80;;;;;;;1.86;100.00;100377.52;106880;1276;25363;-65
2023/02/11 10:12:18;;;;;;;42.70;25.80;;;;;;;1.89;100.00;100369.28;106771;1270;25529;-66
2023/02/11 10:15:40;;;;;;;44.10;26.30;;;;;;;1.90;100.00;100362.48;107884;1277;23239;-65
2023/02/11 10:18:47;;;;;;;42.00;26.50;;;;;;;2.03;100.00;100356.89;107085;1280;25344;-65
2023/02/11 10:21:23;;;;;;;40.60;26.70;;;;;;;1.99;100.00;100356.05;107604;1271;22537;-66
2023/02/11 10:23:53;;;;;;;40.20;26.20;;;;;;;1.95;100.00;100350.33;107708;1270;22679;-65
2023/02/11 10:26:22;;;;;;;46.10;27.30;;;;;;;2.00;100.00;100349.52;107727;1274;23358;-65
2023/02/11 10:28:51;;;;;;;43.50;26.90;;;;;;;2.08;100.00;100344.39;107492;1274;25946;-65
2023/02/11 10:31:24;;;;;;;42.20;26.40;;;;;;;2.10;100.00;100344.80;107347;1273;23338;-64
2023/02/11 10:34:06;;;;;;;43.90;27.00;;;;;;;2.13;100.00;100336.92;107483;1274;22641;-66
2023/02/11 10:36:37;;;;;;;41.30;26.20;;;;;;;2.13;100.00;100327.23;107365;1277;22604;-66
2023/02/11 10:39:10;;;;;;;41.00;26.40;;;;;;;2.19;100.00;100325.25;107474;1278;22569;-63
2023/02/11 10:41:51;;;;;;;44.70;27.40;;;;;;;2.19;100.00;100326.45;107867;1271;23403;-64
2023/02/11 10:44:41;;;;;;;41.40;26.80;;;;;;;2.17;100.00;100319.70;107406;1277;22556;-65
2023/02/11 10:47:17;;;;;;;42.40;26.70;;;;;;;2.16;100.00;100313.75;107392;1277;23136;-65
2023/02/11 10:49:45;;;;;;;40.30;25.10;;;;;;;2.24;100.00;100305.66;110226;1277;22300;-66
2023/02/11 10:52:18;;;;;;;37.20;25.40;;;;;;;2.30;100.00;100304.02;110264;1278;22363;-66
2023/02/11 10:55:00;;;;;;;44.30;26.80;;;;;;;2.34;100.00;100301.05;110268;1277;22153;-67
2023/02/11 10:57:36;;;;;;;43.20;27.70;;;;;;;2.36;100.00;100297.21;110268;1273;22952;-66
2023/02/11 11:00:19;;;;;;;40.50;26.50;;;;;;;2.41;100.00;100293.46;110273;1277;22304;-66
2023/02/11 11:02:57;;;;;;;41.30;25.90;;;;;;;2.41;100.00;100282.58;110292;1277;22253;-66
2023/02/11 11:05:32;;;;;;;39.30;25.70;;;;;;;2.39;100.00;100276.09;110117;1277;22225;-66
2023/02/11 11:08:04;;;;;;;44.60;27.30;;;;;;;2.41;100.00;100269.61;110111;1278;22266;-66
2023/02/11 11:10:35;;;;;;;39.10;25.10;;;;;;;2.50;100.00;100265.42;110273;1277;22197;-66
2023/02/11 11:13:03;;;;;;;40.30;26.30;;;;;;;2.49;100.00;100252.33;110251;1277;23117;-66
2023/02/11 11:15:32;;;;;;;40.60;26.70;;;;;;;2.44;100.00;100250.95;110262;1277;22408;-66
2023/02/11 11:18:14;;;;;;;37.50;25.30;;;;;;;2.46;100.00;100243.89;110255;1277;22273;-66
2023/02/11 11:21:02;;;;;;;39.60;26.30;;;;;;;2.56;100.00;100237.27;110247;1277;22429;-66
2023/02/11 11:23:31;;;;;;;39.30;26.10;;;;;;;2.51;100.00;100231.79;110119;1277;23024;-66